Jakobshavn, Greenland
Current Conditions -  °F | °C
As of 10:50 PM on Saturday 25 Oct 2014 (Local Time) from BGJN Reporting Station
Overcast Overcast  
Wind Chill: 18°   Ceiling: 7000
Heat Index: 18°   Visibility: 6mi
Dew Point:   Wind: 2mph
Humidity: 68%   Direction: 130°SE
Pressure: 29.83"   Gusts: NA
Location:  69.21°N, 51.09°W
Report Text: BGJN 260050Z AUTO 13002KT 9999NDV OVC070/// M08/M13 Q1010
Loading
Personal Weather Stations






























Interactive Weather Map
Tropical Storm Tracking
New forecast layout! Learn more

10-Day Weather Forecast

Advertisements
Track Severe Weather on mobile